Buoy 44843

sailwx.info

Track history (hours):
 
Tides and Currents Weather Stations Pressure Air Temp Water Temp Dewpoint Dewpoint Depression Visibility Wind Speed Wind Dir Waves Ship Positions

Drifting buoy 44843

Last reported at 2018-Jun-19 15:15 UTC. Time now 2018-Jun-19 16:16 UTC.
Position N 31°44' W 067°07'.

Date/timePositionNaut miles runAvg speedWind from/ knotsBaromVisibWave heightAir tempDewpointWater temp
2018-Jun-19 15:15N 31°44' W 067°07'1 2.0
2018-Jun-19 15:00N 31°44' W 067°08'0 0.0
2018-Jun-19 14:00N 31°44' W 067°08'1 0.5
2018-Jun-19 13:00N 31°44' W 067°08'0 0.0
2018-Jun-19 12:45N 31°44' W 067°08'1 0.8
2018-Jun-19 11:45N 31°44' W 067°09'1 0.6
2018-Jun-19 10:00N 31°44' W 067°10'4 2.9
2018-Jun-19 08:45N 31°45' W 067°14'0 0.0
2018-Jun-19 02:45N 31°45' W 067°14'2 1.6
2018-Jun-19 01:45N 31°44' W 067°16'0 0.0
2018-Jun-19 01:00N 31°44' W 067°16'1 1.2
2018-Jun-19 00:00N 31°44' W 067°17'1 0.5
2018-Jun-18 23:00N 31°44' W 067°17'1 3.2
2018-Jun-18 22:45N 31°43' W 067°17'0 0.0
2018-Jun-18 22:00N 31°43' W 067°17'2 1.4
2018-Jun-18 20:15N 31°41' W 067°18'1 0.1
2018-Jun-18 13:45N 31°40' W 067°18'1 1.1 230 / 16 gusting 17 0.521.215.716.8
2018-Jun-18 13:00N 31°41' W 067°19'0 0.0
2018-Jun-18 12:45N 31°41' W 067°19'0 0.0
2018-Jun-18 10:45N 31°41' W 067°19'2 1.2
2018-Jun-18 09:00N 31°41' W 067°21'0 0.0
2018-Jun-18 08:45N 31°41' W 067°21'5 0.8
2018-Jun-18 02:00N 31°40' W 067°27'0 0.0
2018-Jun-18 00:45N 31°40' W 067°27'1 0.5
2018-Jun-17 23:00N 31°40' W 067°28'1 0.6
2018-Jun-17 21:45N 31°39' W 067°28'2 0.7
2018-Jun-17 18:45N 31°37' W 067°29'1 0.2
2018-Jun-17 15:45N 31°37' W 067°30'0 0.0
2018-Jun-17 14:45N 31°37' W 067°30'0 0.0
2018-Jun-17 14:15N 31°37' W 067°30'1 2.0
2018-Jun-17 14:00N 31°37' W 067°29'1 0.6
2018-Jun-17 12:00N 31°38' W 067°31'0 0.0
2018-Jun-17 11:45N 31°38' W 067°31'1 0.8
2018-Jun-17 10:45N 31°38' W 067°31'3 1.5
2018-Jun-17 09:00N 31°38' W 067°34'5 0.7
2018-Jun-17 01:45N 31°37' W 067°40'1 1.1
2018-Jun-17 01:00N 31°37' W 067°40'1 4.1
2018-Jun-17 00:45N 31°37' W 067°41'0 0.0
2018-Jun-17 00:00N 31°37' W 067°41'1 3.2
2018-Jun-16 23:45N 31°36' W 067°41'1 0.7
2018-Jun-16 22:00N 31°35' W 067°41'0 0.0
2018-Jun-16 21:45N 31°35' W 067°41'0 0.0
2018-Jun-16 20:45N 31°35' W 067°41'2 1.4
2018-Jun-16 19:00N 31°32' W 067°41'0 0.0
2018-Jun-16 18:45N 31°32' W 067°41'1 0.1
2018-Jun-16 15:15N 31°32' W 067°41'0 0.0
2018-Jun-16 15:00N 31°32' W 067°41'0 0.0
2018-Jun-16 12:45N 31°32' W 067°41'1 0.7
2018-Jun-16 12:00N 31°32' W 067°41'1 4.7
2018-Jun-16 11:45N 31°33' W 067°43'0 0.0
2018-Jun-16 10:00N 31°33' W 067°43'6 0.9
2018-Jun-16 02:45N 31°29' W 067°49'0 0.0
2018-Jun-16 02:15N 31°29' W 067°49'2 6.3
2018-Jun-16 02:00N 31°28' W 067°50'1 0.6
2018-Jun-16 01:00N 31°29' W 067°50'1 1.3
2018-Jun-16 00:00N 31°28' W 067°50'0 0.0
2018-Jun-15 23:00N 31°28' W 067°50'1 3.2
2018-Jun-15 22:45N 31°27' W 067°51'2 1.2
2018-Jun-15 20:45N 31°26' W 067°53'3 1.8
2018-Jun-15 19:00N 31°23' W 067°56'2 0.6
2018-Jun-15 14:45N 31°21' W 067°56'1 0.6
2018-Jun-15 13:45N 31°20' W 067°56'1 0.8
2018-Jun-15 12:45N 31°20' W 067°57'2 2.8
2018-Jun-15 12:00N 31°18' W 067°58'0 0.0
2018-Jun-15 11:00N 31°18' W 067°58'2 0.9
2018-Jun-15 08:45N 31°16' W 067°59'1 0.5
2018-Jun-15 07:45N 31°16' W 068°00'5 1.1
2018-Jun-15 03:00N 31°13' W 068°05'2 1.1
2018-Jun-15 00:45N 31°11' W 068°07'0 0.0
2018-Jun-15 00:30N 31°11' W 068°07'0 0.0
2018-Jun-15 00:15N 31°11' W 068°07'0 0.0
2018-Jun-14 23:45N 31°11' W 068°07'1 1.0
2018-Jun-14 22:45N 31°11' W 068°08'1 1.2
2018-Jun-14 21:45N 31°11' W 068°10'1 1.1
2018-Jun-14 21:00N 31°11' W 068°10'0 0.0
2018-Jun-14 20:45N 31°11' W 068°10'5 1.0
2018-Jun-14 15:45N 31°11' W 068°16'0 0.0
2018-Jun-14 15:15N 31°11' W 068°16'1 0.6
2018-Jun-14 14:00N 31°12' W 068°17'1 2.1
2018-Jun-14 13:45N 31°12' W 068°17'2 0.6
2018-Jun-14 09:45N 31°14' W 068°19'2 0.9
2018-Jun-14 08:00N 31°14' W 068°21'0 0.0
2018-Jun-14 07:45N 31°14' W 068°21'3 0.7
2018-Jun-14 02:45N 31°16' W 068°25'0 0.0
2018-Jun-14 01:45N 31°16' W 068°25'1 0.7
2018-Jun-14 01:00N 31°16' W 068°24'1 0.5
2018-Jun-14 00:00N 31°16' W 068°25'1 2.1
2018-Jun-13 23:45N 31°16' W 068°24'0 0.0
2018-Jun-13 23:15N 31°16' W 068°24'1 0.6
2018-Jun-13 22:00N 31°16' W 068°25'0 0.0
2018-Jun-13 21:15N 31°16' W 068°25'0 0.0
2018-Jun-13 21:00N 31°16' W 068°25'4 0.5
2018-Jun-13 14:00N 31°20' W 068°25'1 2.4
2018-Jun-13 13:45N 31°20' W 068°25'0 0.0
2018-Jun-13 12:45N 31°20' W 068°25'1 0.8
2018-Jun-13 12:00N 31°21' W 068°25'1 4.1
2018-Jun-13 11:45N 31°21' W 068°26'1 0.7
2018-Jun-13 10:00N 31°22' W 068°25'1 3.2
2018-Jun-13 09:45N 31°23' W 068°25'0 0.0 23.7
2018-Jun-13 08:15N 31°23' W 068°25'2 6.3
2018-Jun-13 08:00N 31°24' W 068°23'1 0.1
2018-Jun-13 02:00N 31°25' W 068°23'0 0.0
2018-Jun-13 01:45N 31°25' W 068°23'3 1.6
2018-Jun-13 00:00N 31°26' W 068°21'0 0.0
2018-Jun-12 23:45N 31°26' W 068°21'1 0.6
2018-Jun-12 22:45N 31°27' W 068°21'0 0.0
2018-Jun-12 22:00N 31°27' W 068°21'1 2.0
2018-Jun-12 21:45N 31°27' W 068°20'4 2.1
2018-Jun-12 19:45N 31°31' W 068°20'0 0.0
2018-Jun-12 15:45N 31°31' W 068°20'0 0.0
2018-Jun-12 14:45N 31°31' W 068°20'1 1.0
2018-Jun-12 14:15N 31°31' W 068°21'1 2.4
2018-Jun-12 14:00N 31°32' W 068°21'1 0.5
2018-Jun-12 12:45N 31°32' W 068°21'1 0.7
2018-Jun-12 10:45N 31°34' W 068°22'1 1.1
2018-Jun-12 10:00N 31°34' W 068°22'1 0.4
2018-Jun-12 08:45N 31°34' W 068°23'2 0.3
2018-Jun-12 01:45N 31°36' W 068°25'1 0.5
2018-Jun-12 00:45N 31°36' W 068°25'1 0.8
2018-Jun-12 00:00N 31°37' W 068°25'2 0.5
2018-Jun-11 20:00N 31°38' W 068°25'312.2
2018-Jun-11 19:45N 31°41' W 068°25'3 0.4
2018-Jun-11 13:00N 31°43' W 068°28'1 4.7
2018-Jun-11 12:45N 31°44' W 068°29'1 0.5
2018-Jun-11 11:15N 31°43' W 068°29'1 2.0
2018-Jun-11 11:00N 31°43' W 068°29'0 0.0
2018-Jun-11 10:45N 31°43' W 068°29'2 0.2
2018-Jun-11 02:45N 31°44' W 068°31'1 0.7
2018-Jun-11 02:00N 31°44' W 068°30'1 0.5
2018-Jun-10 23:45N 31°46' W 068°30'1 0.5 24.4
2018-Jun-10 22:45N 31°46' W 068°29'1 1.2
2018-Jun-10 22:15N 31°46' W 068°29'0 0.0
2018-Jun-10 22:00N 31°46' W 068°29'2 9.8
2018-Jun-10 21:45N 31°49' W 068°30'0 0.0
2018-Jun-10 20:00N 31°49' W 068°30'2 0.3
2018-Jun-10 15:00N 31°49' W 068°32'1 3.1
2018-Jun-10 14:45N 31°50' W 068°32'0 0.0
2018-Jun-10 14:00N 31°50' W 068°32'1 2.0
2018-Jun-10 13:45N 31°50' W 068°33'1 1.2
2018-Jun-10 13:15N 31°49' W 068°33'2 6.6
2018-Jun-10 13:00N 31°50' W 068°35'1 0.2
2018-Jun-10 09:45N 31°49' W 068°34'2 2.1
2018-Jun-10 08:45N 31°51' W 068°33'0 0.0
2018-Jun-10 03:15N 31°51' W 068°33'0 0.0
2018-Jun-10 03:00N 31°51' W 068°33'1 0.3
2018-Jun-10 00:45N 31°52' W 068°32'1 0.3
2018-Jun-09 23:00N 31°52' W 068°32'1 3.1
2018-Jun-09 22:45N 31°53' W 068°33'2 0.6
2018-Jun-09 20:15N 31°54' W 068°34'0 0.0
2018-Jun-09 18:45N 31°54' W 068°34'2 0.6
2018-Jun-09 16:00N 31°54' W 068°36'0 0.0
2018-Jun-09 15:45N 31°54' W 068°36'  
Track history (hours):
 
Tides and Currents Weather Stations Pressure Air Temp Water Temp Dewpoint Dewpoint Depression Visibility Wind Speed Wind Dir Waves Ship Positions

Drifting buoy 44843

Last reported at 2018-Jun-19 15:15 UTC. Time now 2018-Jun-19 16:16 UTC.
Position N 31°44' W 067°07'.

Date/timePositionNaut miles runAvg speedWind from/ knotsBaromVisibWave heightAir tempDewpointWater temp
2018-Jun-19 15:15N 31°44' W 067°07'1 2.0
2018-Jun-19 15:00N 31°44' W 067°08'0 0.0
2018-Jun-19 14:00N 31°44' W 067°08'1 0.5
2018-Jun-19 13:00N 31°44' W 067°08'0 0.0
2018-Jun-19 12:45N 31°44' W 067°08'1 0.8
2018-Jun-19 11:45N 31°44' W 067°09'1 0.6
2018-Jun-19 10:00N 31°44' W 067°10'4 2.9
2018-Jun-19 08:45N 31°45' W 067°14'0 0.0
2018-Jun-19 02:45N 31°45' W 067°14'2 1.6
2018-Jun-19 01:45N 31°44' W 067°16'0 0.0
2018-Jun-19 01:00N 31°44' W 067°16'1 1.2
2018-Jun-19 00:00N 31°44' W 067°17'1 0.5
2018-Jun-18 23:00N 31°44' W 067°17'1 3.2
2018-Jun-18 22:45N 31°43' W 067°17'0 0.0
2018-Jun-18 22:00N 31°43' W 067°17'2 1.4
2018-Jun-18 20:15N 31°41' W 067°18'1 0.1
2018-Jun-18 13:45N 31°40' W 067°18'1 1.1 230 / 16 gusting 17 0.521.215.716.8
2018-Jun-18 13:00N 31°41' W 067°19'0 0.0
2018-Jun-18 12:45N 31°41' W 067°19'0 0.0
2018-Jun-18 10:45N 31°41' W 067°19'2 1.2
2018-Jun-18 09:00N 31°41' W 067°21'0 0.0
2018-Jun-18 08:45N 31°41' W 067°21'5 0.8
2018-Jun-18 02:00N 31°40' W 067°27'0 0.0
2018-Jun-18 00:45N 31°40' W 067°27'1 0.5
2018-Jun-17 23:00N 31°40' W 067°28'1 0.6
2018-Jun-17 21:45N 31°39' W 067°28'2 0.7
2018-Jun-17 18:45N 31°37' W 067°29'1 0.2
2018-Jun-17 15:45N 31°37' W 067°30'0 0.0
2018-Jun-17 14:45N 31°37' W 067°30'0 0.0
2018-Jun-17 14:15N 31°37' W 067°30'1 2.0
2018-Jun-17 14:00N 31°37' W 067°29'1 0.6
2018-Jun-17 12:00N 31°38' W 067°31'0 0.0
2018-Jun-17 11:45N 31°38' W 067°31'1 0.8
2018-Jun-17 10:45N 31°38' W 067°31'3 1.5
2018-Jun-17 09:00N 31°38' W 067°34'5 0.7
2018-Jun-17 01:45N 31°37' W 067°40'1 1.1
2018-Jun-17 01:00N 31°37' W 067°40'1 4.1
2018-Jun-17 00:45N 31°37' W 067°41'0 0.0
2018-Jun-17 00:00N 31°37' W 067°41'1 3.2
2018-Jun-16 23:45N 31°36' W 067°41'1 0.7
2018-Jun-16 22:00N 31°35' W 067°41'0 0.0
2018-Jun-16 21:45N 31°35' W 067°41'0 0.0
2018-Jun-16 20:45N 31°35' W 067°41'2 1.4
2018-Jun-16 19:00N 31°32' W 067°41'0 0.0
2018-Jun-16 18:45N 31°32' W 067°41'1 0.1
2018-Jun-16 15:15N 31°32' W 067°41'0 0.0
2018-Jun-16 15:00N 31°32' W 067°41'0 0.0
2018-Jun-16 12:45N 31°32' W 067°41'1 0.7
2018-Jun-16 12:00N 31°32' W 067°41'1 4.7
2018-Jun-16 11:45N 31°33' W 067°43'0 0.0
2018-Jun-16 10:00N 31°33' W 067°43'6 0.9
2018-Jun-16 02:45N 31°29' W 067°49'0 0.0
2018-Jun-16 02:15N 31°29' W 067°49'2 6.3
2018-Jun-16 02:00N 31°28' W 067°50'1 0.6
2018-Jun-16 01:00N 31°29' W 067°50'1 1.3
2018-Jun-16 00:00N 31°28' W 067°50'0 0.0
2018-Jun-15 23:00N 31°28' W 067°50'1 3.2
2018-Jun-15 22:45N 31°27' W 067°51'2 1.2
2018-Jun-15 20:45N 31°26' W 067°53'3 1.8
2018-Jun-15 19:00N 31°23' W 067°56'2 0.6
2018-Jun-15 14:45N 31°21' W 067°56'1 0.6
2018-Jun-15 13:45N 31°20' W 067°56'1 0.8
2018-Jun-15 12:45N 31°20' W 067°57'2 2.8
2018-Jun-15 12:00N 31°18' W 067°58'0 0.0
2018-Jun-15 11:00N 31°18' W 067°58'2 0.9
2018-Jun-15 08:45N 31°16' W 067°59'1 0.5
2018-Jun-15 07:45N 31°16' W 068°00'5 1.1
2018-Jun-15 03:00N 31°13' W 068°05'2 1.1
2018-Jun-15 00:45N 31°11' W 068°07'0 0.0
2018-Jun-15 00:30N 31°11' W 068°07'0 0.0
2018-Jun-15 00:15N 31°11' W 068°07'0 0.0
2018-Jun-14 23:45N 31°11' W 068°07'1 1.0
2018-Jun-14 22:45N 31°11' W 068°08'1 1.2
2018-Jun-14 21:45N 31°11' W 068°10'1 1.1
2018-Jun-14 21:00N 31°11' W 068°10'0 0.0
2018-Jun-14 20:45N 31°11' W 068°10'5 1.0
2018-Jun-14 15:45N 31°11' W 068°16'0 0.0
2018-Jun-14 15:15N 31°11' W 068°16'1 0.6
2018-Jun-14 14:00N 31°12' W 068°17'1 2.1
2018-Jun-14 13:45N 31°12' W 068°17'2 0.6
2018-Jun-14 09:45N 31°14' W 068°19'2 0.9
2018-Jun-14 08:00N 31°14' W 068°21'0 0.0
2018-Jun-14 07:45N 31°14' W 068°21'3 0.7
2018-Jun-14 02:45N 31°16' W 068°25'0 0.0
2018-Jun-14 01:45N 31°16' W 068°25'1 0.7
2018-Jun-14 01:00N 31°16' W 068°24'1 0.5
2018-Jun-14 00:00N 31°16' W 068°25'1 2.1
2018-Jun-13 23:45N 31°16' W 068°24'0 0.0
2018-Jun-13 23:15N 31°16' W 068°24'1 0.6
2018-Jun-13 22:00N 31°16' W 068°25'0 0.0
2018-Jun-13 21:15N 31°16' W 068°25'0 0.0
2018-Jun-13 21:00N 31°16' W 068°25'4 0.5
2018-Jun-13 14:00N 31°20' W 068°25'1 2.4
2018-Jun-13 13:45N 31°20' W 068°25'0 0.0
2018-Jun-13 12:45N 31°20' W 068°25'1 0.8
2018-Jun-13 12:00N 31°21' W 068°25'1 4.1
2018-Jun-13 11:45N 31°21' W 068°26'1 0.7
2018-Jun-13 10:00N 31°22' W 068°25'1 3.2
2018-Jun-13 09:45N 31°23' W 068°25'0 0.0 23.7
2018-Jun-13 08:15N 31°23' W 068°25'2 6.3
2018-Jun-13 08:00N 31°24' W 068°23'1 0.1
2018-Jun-13 02:00N 31°25' W 068°23'0 0.0
2018-Jun-13 01:45N 31°25' W 068°23'3 1.6
2018-Jun-13 00:00N 31°26' W 068°21'0 0.0
2018-Jun-12 23:45N 31°26' W 068°21'1 0.6
2018-Jun-12 22:45N 31°27' W 068°21'0 0.0
2018-Jun-12 22:00N 31°27' W 068°21'1 2.0
2018-Jun-12 21:45N 31°27' W 068°20'4 2.1
2018-Jun-12 19:45N 31°31' W 068°20'0 0.0
2018-Jun-12 15:45N 31°31' W 068°20'0 0.0
2018-Jun-12 14:45N 31°31' W 068°20'1 1.0
2018-Jun-12 14:15N 31°31' W 068°21'1 2.4
2018-Jun-12 14:00N 31°32' W 068°21'1 0.5
2018-Jun-12 12:45N 31°32' W 068°21'1 0.7
2018-Jun-12 10:45N 31°34' W 068°22'1 1.1
2018-Jun-12 10:00N 31°34' W 068°22'1 0.4
2018-Jun-12 08:45N 31°34' W 068°23'2 0.3
2018-Jun-12 01:45N 31°36' W 068°25'1 0.5
2018-Jun-12 00:45N 31°36' W 068°25'1 0.8
2018-Jun-12 00:00N 31°37' W 068°25'2 0.5
2018-Jun-11 20:00N 31°38' W 068°25'312.2
2018-Jun-11 19:45N 31°41' W 068°25'3 0.4
2018-Jun-11 13:00N 31°43' W 068°28'1 4.7
2018-Jun-11 12:45N 31°44' W 068°29'1 0.5
2018-Jun-11 11:15N 31°43' W 068°29'1 2.0
2018-Jun-11 11:00N 31°43' W 068°29'0 0.0
2018-Jun-11 10:45N 31°43' W 068°29'2 0.2
2018-Jun-11 02:45N 31°44' W 068°31'1 0.7
2018-Jun-11 02:00N 31°44' W 068°30'1 0.5
2018-Jun-10 23:45N 31°46' W 068°30'1 0.5 24.4
2018-Jun-10 22:45N 31°46' W 068°29'1 1.2
2018-Jun-10 22:15N 31°46' W 068°29'0 0.0
2018-Jun-10 22:00N 31°46' W 068°29'2 9.8
2018-Jun-10 21:45N 31°49' W 068°30'0 0.0
2018-Jun-10 20:00N 31°49' W 068°30'2 0.3
2018-Jun-10 15:00N 31°49' W 068°32'1 3.1
2018-Jun-10 14:45N 31°50' W 068°32'0 0.0
2018-Jun-10 14:00N 31°50' W 068°32'1 2.0
2018-Jun-10 13:45N 31°50' W 068°33'1 1.2
2018-Jun-10 13:15N 31°49' W 068°33'2 6.6
2018-Jun-10 13:00N 31°50' W 068°35'1 0.2
2018-Jun-10 09:45N 31°49' W 068°34'2 2.1
2018-Jun-10 08:45N 31°51' W 068°33'0 0.0
2018-Jun-10 03:15N 31°51' W 068°33'0 0.0
2018-Jun-10 03:00N 31°51' W 068°33'1 0.3
2018-Jun-10 00:45N 31°52' W 068°32'1 0.3
2018-Jun-09 23:00N 31°52' W 068°32'1 3.1
2018-Jun-09 22:45N 31°53' W 068°33'2 0.6
2018-Jun-09 20:15N 31°54' W 068°34'0 0.0
2018-Jun-09 18:45N 31°54' W 068°34'2 0.6
2018-Jun-09 16:00N 31°54' W 068°36'0 0.0
2018-Jun-09 15:45N 31°54' W 068°36'  

Dump ship's entire track history